createdAt,value
2017-11-29T00:01:36.426Z,18.80
2017-11-29T00:04:02.608Z,17.40
2017-11-29T00:06:28.791Z,19.80
2017-11-29T00:08:54.995Z,19.00
2017-11-29T00:11:21.926Z,22.10
2017-11-29T00:13:48.147Z,20.10
2017-11-29T00:16:14.331Z,21.30
2017-11-29T00:18:40.515Z,19.10
2017-11-29T00:21:06.717Z,20.50
2017-11-29T00:23:32.878Z,19.90
2017-11-29T00:25:59.056Z,20.63
2017-11-29T00:28:25.256Z,19.60
2017-11-29T00:30:51.410Z,21.07
2017-11-29T00:33:17.586Z,20.33
2017-11-29T00:35:43.858Z,20.83
2017-11-29T00:38:10.034Z,21.57
2017-11-29T00:40:36.943Z,23.07
2017-11-29T00:43:03.150Z,22.47
2017-11-29T00:45:29.338Z,20.20
2017-11-29T00:47:56.251Z,23.87
2017-11-29T00:50:22.442Z,20.90
2017-11-29T00:52:48.850Z,24.23
2017-11-29T00:55:15.034Z,23.50
2017-11-29T00:57:41.232Z,23.70
2017-11-29T01:00:08.176Z,22.30
2017-11-29T01:02:35.090Z,22.70
2017-11-29T01:05:01.297Z,22.27
2017-11-29T01:07:27.471Z,23.77
2017-11-29T01:09:53.678Z,22.10
2017-11-29T01:12:19.858Z,20.90
2017-11-29T01:14:46.027Z,20.90
2017-11-29T01:17:12.303Z,21.60
2017-11-29T01:19:39.320Z,21.33
2017-11-29T01:22:05.510Z,20.47
2017-11-29T01:24:31.678Z,22.27
2017-11-29T01:26:57.863Z,20.43
2017-11-29T01:29:24.042Z,21.33
2017-11-29T01:31:50.241Z,21.53
2017-11-29T01:34:17.173Z,23.20
2017-11-29T01:36:43.417Z,23.10
2017-11-29T01:39:09.618Z,23.67
2017-11-29T01:41:35.813Z,23.70
2017-11-29T01:44:02.010Z,24.20
2017-11-29T01:46:28.181Z,24.23
2017-11-29T01:48:54.374Z,24.73
2017-11-29T01:51:20.579Z,21.30
2017-11-29T01:53:46.862Z,24.30
2017-11-29T01:56:13.054Z,23.43
2017-11-29T01:58:39.231Z,22.80
2017-11-29T02:01:05.399Z,23.93
2017-11-29T02:03:31.595Z,24.23
2017-11-29T02:05:59.587Z,24.50
2017-11-29T02:08:26.498Z,23.80
2017-11-29T02:10:52.677Z,23.63
2017-11-29T02:13:19.604Z,25.13
2017-11-29T02:15:45.793Z,23.83
2017-11-29T02:18:11.980Z,25.53
2017-11-29T02:20:38.918Z,22.47
2017-11-29T02:23:05.125Z,22.33
2017-11-29T02:25:31.388Z,23.73
2017-11-29T02:27:57.561Z,24.10
2017-11-29T02:30:23.751Z,24.00
2017-11-29T02:32:49.948Z,24.40
2017-11-29T02:35:16.119Z,24.13
2017-11-29T02:37:42.347Z,25.70
2017-11-29T02:40:20.822Z,25.50
2017-11-29T02:42:47.017Z,25.07
2017-11-29T02:45:14.913Z,25.37
2017-11-29T02:47:41.109Z,25.47
2017-11-29T02:50:07.274Z,25.50
2017-11-29T02:52:33.463Z,25.07
2017-11-29T02:54:59.840Z,25.77
2017-11-29T02:57:26.044Z,24.33
2017-11-29T02:59:52.975Z,25.30
2017-11-29T03:02:19.183Z,26.50
2017-11-29T03:04:45.377Z,24.87
2017-11-29T03:07:11.555Z,25.17
2017-11-29T03:09:37.766Z,24.90
2017-11-29T03:12:03.933Z,26.27
2017-11-29T03:14:30.146Z,25.70
2017-11-29T03:16:56.330Z,23.87
2017-11-29T03:19:22.592Z,25.10
2017-11-29T03:21:48.799Z,24.93
2017-11-29T03:24:15.734Z,23.30
2017-11-29T03:26:41.942Z,22.50
2017-11-29T03:29:08.111Z,22.27
2017-11-29T03:31:34.305Z,23.50
2017-11-29T03:34:00.522Z,24.73
2017-11-29T03:36:26.691Z,23.80
2017-11-29T03:38:52.943Z,23.20
2017-11-29T03:41:19.121Z,23.17
2017-11-29T03:43:46.050Z,25.33
2017-11-29T03:46:12.276Z,24.80
2017-11-29T03:48:38.450Z,22.63
2017-11-29T03:51:04.631Z,23.63
2017-11-29T03:53:30.814Z,22.93
2017-11-29T03:55:57.087Z,25.50
2017-11-29T03:58:23.254Z,24.50
2017-11-29T04:00:50.186Z,26.63
2017-11-29T04:03:16.354Z,25.67
2017-11-29T04:05:42.530Z,26.67
2017-11-29T04:08:08.768Z,24.60
2017-11-29T04:10:34.958Z,26.80
2017-11-29T04:13:01.136Z,27.30
2017-11-29T04:15:27.322Z,26.73
2017-11-29T04:17:54.255Z,25.30
2017-11-29T04:20:21.172Z,27.23
2017-11-29T04:22:47.361Z,24.67
2017-11-29T04:25:13.536Z,28.73
2017-11-29T04:27:39.707Z,26.00
2017-11-29T04:30:05.958Z,26.67
2017-11-29T04:32:32.126Z,26.07
2017-11-29T04:34:58.320Z,26.33
2017-11-29T04:37:25.249Z,25.20
2017-11-29T04:39:52.377Z,24.87
2017-11-29T04:42:19.295Z,29.70
2017-11-29T04:44:45.498Z,27.23
2017-11-29T04:47:12.236Z,25.70
2017-11-29T04:49:38.438Z,26.43
2017-11-29T04:52:04.655Z,27.83
2017-11-29T04:54:30.824Z,29.20
2017-11-29T04:56:57.154Z,27.30
2017-11-29T04:59:23.370Z,26.43
2017-11-29T05:01:49.566Z,28.10
2017-11-29T05:04:16.477Z,26.27
2017-11-29T05:06:42.674Z,24.47
2017-11-29T05:09:08.899Z,26.30
2017-11-29T05:11:35.898Z,28.10
2017-11-29T05:14:02.092Z,27.40
2017-11-29T05:16:28.277Z,28.63
2017-11-29T05:18:54.461Z,27.50
2017-11-29T05:21:20.673Z,27.40
2017-11-29T05:23:46.877Z,26.43
2017-11-29T05:26:13.798Z,28.00
2017-11-29T05:28:39.995Z,27.00
2017-11-29T05:31:06.199Z,26.10
2017-11-29T05:33:32.403Z,25.10
2017-11-29T05:35:58.689Z,28.40
2017-11-29T05:38:24.861Z,29.50
2017-11-29T05:40:52.018Z,27.53
2017-11-29T05:43:18.212Z,31.63
2017-11-29T05:45:46.170Z,30.20
2017-11-29T05:48:14.110Z,29.00
2017-11-29T05:50:42.046Z,27.07
2017-11-29T05:53:09.983Z,28.63
2017-11-29T05:55:37.906Z,27.70
2017-11-29T05:58:06.046Z,28.37
2017-11-29T06:00:33.972Z,29.27
2017-11-29T06:03:01.907Z,31.00
2017-11-29T06:05:30.747Z,27.77
2017-11-29T06:07:58.730Z,28.73
2017-11-29T06:10:26.687Z,27.87
2017-11-29T06:12:54.758Z,30.10
2017-11-29T06:15:22.681Z,29.13
2017-11-29T06:17:48.899Z,29.20
2017-11-29T06:20:15.926Z,31.83
2017-11-29T06:22:42.163Z,32.90
2017-11-29T06:25:08.358Z,32.70
2017-11-29T06:27:34.578Z,31.80
2017-11-29T06:30:01.519Z,32.90
2017-11-29T06:32:27.680Z,32.93
2017-11-29T06:34:53.876Z,30.33
2017-11-29T06:37:20.834Z,29.60
2017-11-29T06:39:47.020Z,27.83
2017-11-29T06:42:13.290Z,30.47
2017-11-29T06:44:39.519Z,29.93
2017-11-29T06:47:05.693Z,28.60
2017-11-29T06:49:32.646Z,26.93
2017-11-29T06:51:58.860Z,26.90
2017-11-29T06:54:25.785Z,26.47
2017-11-29T06:56:52.002Z,28.73
2017-11-29T06:59:18.382Z,26.13
2017-11-29T07:01:45.294Z,29.33
2017-11-29T07:04:11.537Z,28.37
2017-11-29T07:06:37.717Z,33.83
2017-11-29T07:09:03.910Z,28.93
2017-11-29T07:11:30.119Z,30.37
2017-11-29T07:13:56.294Z,32.33
2017-11-29T07:16:22.490Z,29.23
2017-11-29T07:18:48.682Z,30.67
2017-11-29T07:21:15.594Z,32.33
2017-11-29T07:23:43.262Z,32.57
2017-11-29T07:26:09.473Z,32.83
2017-11-29T07:28:35.671Z,31.40
2017-11-29T07:31:02.578Z,30.13
2017-11-29T07:33:28.805Z,30.60
2017-11-29T07:35:55.035Z,29.23
2017-11-29T07:38:21.228Z,28.20
2017-11-29T07:40:48.187Z,29.13
2017-11-29T07:43:14.455Z,30.93
2017-11-29T07:45:40.639Z,28.67
2017-11-29T07:48:07.606Z,31.97
2017-11-29T07:50:33.803Z,30.27
2017-11-29T07:53:00.040Z,31.20
2017-11-29T07:55:26.242Z,30.67
2017-11-29T07:57:52.442Z,30.30
2017-11-29T08:00:18.877Z,31.63
2017-11-29T08:02:45.107Z,31.77
2017-11-29T08:05:11.288Z,32.77
2017-11-29T08:07:37.480Z,30.83
2017-11-29T08:10:03.683Z,30.90
2017-11-29T08:12:29.868Z,31.63
2017-11-29T08:14:56.048Z,31.33
2017-11-29T08:17:22.267Z,31.90
2017-11-29T08:19:48.434Z,34.90
2017-11-29T08:22:14.672Z,33.30
2017-11-29T08:24:41.607Z,32.17
2017-11-29T08:27:08.539Z,32.90
2017-11-29T08:29:34.710Z,32.20
2017-11-29T08:32:01.629Z,31.70
2017-11-29T08:34:27.818Z,33.13
2017-11-29T08:36:53.981Z,32.63
2017-11-29T08:39:21.654Z,30.07
2017-11-29T08:41:47.862Z,29.37
2017-11-29T08:44:14.117Z,29.90
2017-11-29T08:46:40.286Z,27.77
2017-11-29T08:49:07.190Z,27.03
2017-11-29T08:51:33.381Z,25.10
2017-11-29T08:53:59.583Z,25.27
2017-11-29T08:56:25.799Z,26.27
2017-11-29T08:58:51.981Z,27.23
2017-11-29T09:01:18.311Z,27.87
2017-11-29T09:03:45.244Z,26.67
2017-11-29T09:06:11.447Z,28.93
2017-11-29T09:08:37.634Z,29.10
2017-11-29T09:11:03.820Z,28.30
2017-11-29T09:13:29.987Z,27.47
2017-11-29T09:15:56.173Z,29.00
2017-11-29T09:18:22.394Z,28.90
2017-11-29T09:20:48.592Z,29.10
2017-11-29T09:23:15.524Z,29.70
2017-11-29T09:25:41.718Z,30.90
2017-11-29T09:28:07.892Z,31.47
2017-11-29T09:30:34.107Z,28.90
2017-11-29T09:33:00.303Z,29.07
2017-11-29T09:35:26.498Z,27.53
2017-11-29T09:37:52.687Z,26.73
2017-11-29T09:40:18.907Z,24.27
2017-11-29T09:42:45.072Z,26.47
2017-11-29T09:45:12.205Z,26.30
2017-11-29T09:47:38.407Z,26.23
2017-11-29T09:50:04.621Z,28.10
2017-11-29T09:52:31.596Z,26.30
2017-11-29T09:54:58.517Z,25.90
2017-11-29T09:57:24.689Z,25.70
2017-11-29T09:59:50.878Z,28.50
2017-11-29T10:02:17.339Z,30.17
2017-11-29T10:04:43.560Z,28.10
2017-11-29T10:07:09.771Z,29.93
2017-11-29T10:09:35.958Z,31.33
2017-11-29T10:12:02.154Z,29.87
2017-11-29T10:14:28.352Z,28.63
2017-11-29T10:16:54.545Z,28.50
2017-11-29T10:19:21.451Z,29.13
2017-11-29T10:21:47.631Z,29.70
2017-11-29T10:24:14.590Z,30.93
2017-11-29T10:26:40.753Z,30.37
2017-11-29T10:29:06.932Z,31.53
2017-11-29T10:31:33.095Z,32.60
2017-11-29T10:33:59.295Z,30.47
2017-11-29T10:36:26.252Z,29.27
2017-11-29T10:38:52.462Z,29.30
2017-11-29T10:41:18.630Z,28.10
2017-11-29T10:43:45.576Z,31.27
2017-11-29T10:46:12.674Z,29.87
2017-11-29T10:48:38.856Z,27.83
2017-11-29T10:51:05.061Z,27.80
2017-11-29T10:53:31.243Z,26.87
2017-11-29T10:55:58.175Z,29.33
2017-11-29T10:58:24.438Z,29.47
2017-11-29T11:00:51.347Z,28.00
2017-11-29T11:03:17.797Z,30.30
2017-11-29T11:05:44.733Z,27.40
2017-11-29T11:08:10.910Z,26.00
2017-11-29T11:10:37.097Z,27.63
2017-11-29T11:13:03.323Z,28.23
2017-11-29T11:15:29.459Z,27.13
2017-11-29T11:17:55.647Z,25.57
2017-11-29T11:20:22.570Z,24.00
2017-11-29T11:22:48.756Z,23.70
2017-11-29T11:25:14.949Z,24.30
2017-11-29T11:27:41.192Z,25.77
2017-11-29T11:30:07.445Z,24.23
2017-11-29T11:32:34.339Z,23.83
2017-11-29T11:35:00.539Z,24.33
2017-11-29T11:37:26.710Z,22.40
2017-11-29T11:39:52.891Z,23.80
2017-11-29T11:42:19.084Z,22.33
2017-11-29T11:44:45.244Z,21.70
2017-11-29T11:47:11.635Z,25.37
2017-11-29T11:49:37.839Z,26.87
2017-11-29T11:52:04.022Z,29.33
2017-11-29T11:54:30.943Z,28.33
2017-11-29T11:56:57.141Z,26.37
2017-11-29T11:59:23.327Z,25.47
2017-11-29T12:01:49.494Z,24.20
2017-11-29T12:04:15.901Z,24.57
2017-11-29T12:06:42.103Z,24.87
2017-11-29T12:09:08.315Z,26.47
2017-11-29T12:11:34.493Z,25.67
2017-11-29T12:14:00.676Z,26.80
2017-11-29T12:16:26.858Z,26.80
2017-11-29T12:18:53.042Z,27.10
2017-11-29T12:21:19.954Z,27.80
2017-11-29T12:23:46.143Z,27.07
2017-11-29T12:26:12.321Z,29.80
2017-11-29T12:28:38.512Z,29.87
2017-11-29T12:31:04.696Z,30.37
2017-11-29T12:33:30.890Z,31.30
2017-11-29T12:35:57.050Z,28.03
2017-11-29T12:38:23.221Z,31.07
2017-11-29T12:40:49.420Z,30.10
2017-11-29T12:43:15.607Z,29.87
2017-11-29T12:45:41.837Z,29.70
2017-11-29T12:48:20.495Z,29.80
2017-11-29T12:50:59.126Z,32.43
2017-11-29T12:53:25.302Z,28.73
2017-11-29T12:55:51.483Z,32.17
2017-11-29T12:58:17.690Z,34.20
2017-11-29T13:00:43.878Z,38.63
2017-11-29T13:03:10.802Z,32.23
2017-11-29T13:05:37.098Z,31.87
2017-11-29T13:08:03.324Z,30.67
2017-11-29T13:10:29.499Z,32.60
2017-11-29T13:12:55.697Z,29.87
2017-11-29T13:15:21.894Z,28.60
2017-11-29T13:17:48.078Z,29.70
2017-11-29T13:20:14.246Z,31.50
2017-11-29T13:22:40.434Z,32.80
2017-11-29T13:25:06.619Z,30.27
2017-11-29T13:27:32.817Z,29.50
2017-11-29T13:29:58.999Z,30.33
2017-11-29T13:32:25.193Z,31.37
2017-11-29T13:34:51.363Z,30.53
2017-11-29T13:37:17.559Z,29.20
2017-11-29T13:39:43.706Z,28.30
2017-11-29T13:42:09.924Z,27.87
2017-11-29T13:44:36.130Z,31.20
2017-11-29T13:47:02.293Z,30.43
2017-11-29T13:49:29.623Z,30.80
2017-11-29T13:51:55.829Z,29.77
2017-11-29T13:54:22.753Z,31.27
2017-11-29T13:56:48.933Z,30.57
2017-11-29T13:59:15.126Z,29.30
2017-11-29T14:01:41.374Z,30.10
2017-11-29T14:04:07.553Z,29.50
2017-11-29T14:06:33.844Z,34.60
2017-11-29T14:09:00.022Z,31.63
2017-11-29T14:11:26.197Z,31.67
2017-11-29T14:13:52.395Z,32.93
2017-11-29T14:16:18.593Z,30.43
2017-11-29T14:18:45.499Z,27.50
2017-11-29T14:21:11.711Z,24.13
2017-11-29T14:23:37.883Z,22.20
2017-11-29T14:26:04.080Z,23.00
2017-11-29T14:28:30.292Z,24.67
2017-11-29T14:30:57.212Z,25.83
2017-11-29T14:33:24.857Z,25.40
2017-11-29T14:35:51.038Z,24.70
2017-11-29T14:38:17.950Z,25.47
2017-11-29T14:40:44.138Z,26.57
2017-11-29T14:43:10.329Z,27.20
2017-11-29T14:45:36.515Z,26.33
2017-11-29T14:48:02.706Z,25.70
2017-11-29T14:50:29.732Z,29.03
2017-11-29T14:52:55.947Z,32.70
2017-11-29T14:55:22.122Z,29.87
2017-11-29T14:57:49.074Z,32.27
2017-11-29T15:00:15.236Z,35.67
2017-11-29T15:02:41.414Z,37.60
2017-11-29T15:05:08.426Z,34.53
2017-11-29T15:07:34.651Z,30.30
2017-11-29T15:10:01.562Z,29.50
2017-11-29T15:12:27.739Z,26.63
2017-11-29T15:14:53.934Z,27.10
2017-11-29T15:17:20.122Z,23.27
2017-11-29T15:19:46.306Z,21.90
2017-11-29T15:22:14.140Z,22.07
2017-11-29T15:24:43.047Z,21.37
2017-11-29T15:27:09.259Z,22.00
2017-11-29T15:29:35.462Z,21.10
2017-11-29T15:32:01.647Z,23.43
2017-11-29T15:34:27.858Z,21.23
2017-11-29T15:36:54.030Z,22.50
2017-11-29T15:39:20.216Z,23.47
2017-11-29T15:41:46.422Z,22.17
2017-11-29T15:44:13.333Z,22.70
2017-11-29T15:46:39.564Z,24.73
2017-11-29T15:49:05.751Z,25.40
2017-11-29T15:51:32.743Z,24.37
2017-11-29T15:53:58.910Z,23.60
2017-11-29T15:56:25.846Z,24.03
2017-11-29T15:58:52.102Z,22.83
2017-11-29T16:01:19.035Z,22.30
2017-11-29T16:03:45.220Z,22.73
2017-11-29T16:06:11.394Z,21.20
2017-11-29T16:08:37.870Z,20.80
2017-11-29T16:11:04.809Z,21.30
2017-11-29T16:13:31.841Z,23.03
2017-11-29T16:15:58.058Z,25.00
2017-11-29T16:18:24.279Z,24.67
2017-11-29T16:20:50.472Z,23.43
2017-11-29T16:23:17.410Z,26.20
2017-11-29T16:25:43.601Z,26.87
2017-11-29T16:28:09.815Z,24.90
2017-11-29T16:30:35.992Z,23.20
2017-11-29T16:33:02.193Z,26.33
2017-11-29T16:35:28.391Z,26.23
2017-11-29T16:37:55.337Z,27.37
2017-11-29T16:40:21.516Z,25.73
2017-11-29T16:42:47.701Z,27.60
2017-11-29T16:45:14.637Z,30.03
2017-11-29T16:47:40.835Z,29.00
2017-11-29T16:50:07.020Z,26.23
2017-11-29T16:52:33.260Z,25.83
2017-11-29T16:55:00.208Z,25.07
2017-11-29T16:57:26.379Z,23.73
2017-11-29T16:59:52.583Z,22.27
2017-11-29T17:02:19.507Z,23.23
2017-11-29T17:04:45.713Z,23.23
2017-11-29T17:07:12.646Z,23.23
2017-11-29T17:09:39.068Z,24.50
2017-11-29T17:12:05.266Z,25.30
2017-11-29T17:14:32.221Z,24.80
2017-11-29T17:16:58.438Z,25.47
2017-11-29T17:19:24.656Z,24.70
2017-11-29T17:21:50.845Z,26.43
2017-11-29T17:24:17.775Z,25.00
2017-11-29T17:26:43.962Z,25.87
2017-11-29T17:29:10.133Z,22.70
2017-11-29T17:31:36.359Z,24.47
2017-11-29T17:34:02.589Z,24.00
2017-11-29T17:36:28.899Z,23.83
2017-11-29T17:38:55.216Z,25.43
2017-11-29T17:41:21.434Z,26.10
2017-11-29T17:43:48.344Z,26.40
2017-11-29T17:46:14.560Z,22.90
2017-11-29T17:48:40.774Z,22.13
2017-11-29T17:51:06.978Z,21.60
2017-11-29T17:53:33.257Z,26.67
2017-11-29T17:55:59.455Z,23.63
2017-11-29T17:58:26.390Z,24.40
2017-11-29T18:00:52.630Z,23.03
2017-11-29T18:03:18.824Z,23.27
2017-11-29T18:05:45.003Z,22.23
2017-11-29T18:08:11.253Z,22.53
2017-11-29T18:10:37.575Z,24.73
2017-11-29T18:13:04.486Z,24.73
2017-11-29T18:15:30.764Z,27.17
2017-11-29T18:17:57.733Z,25.13
2017-11-29T18:20:23.918Z,23.67
2017-11-29T18:22:50.117Z,25.23
2017-11-29T18:25:16.354Z,26.03
2017-11-29T18:27:43.466Z,25.23
2017-11-29T18:30:10.443Z,24.27
2017-11-29T18:32:36.710Z,26.53
2017-11-29T18:35:03.002Z,26.10
2017-11-29T18:37:29.233Z,29.33
2017-11-29T18:39:56.183Z,26.80
2017-11-29T18:42:22.533Z,26.43
2017-11-29T18:44:49.336Z,24.43
2017-11-29T18:47:16.445Z,27.27
2017-11-29T18:49:43.086Z,27.30
2017-11-29T18:52:09.486Z,27.83
2017-11-29T18:54:36.561Z,25.67
2017-11-29T18:57:03.652Z,25.57
2017-11-29T18:59:30.076Z,22.93
2017-11-29T19:01:57.437Z,27.30
2017-11-29T19:04:23.755Z,25.70
2017-11-29T19:06:50.402Z,25.30
2017-11-29T19:09:16.723Z,23.53
2017-11-29T19:11:43.264Z,27.40
2017-11-29T19:14:09.754Z,26.90
2017-11-29T19:16:36.578Z,26.90
2017-11-29T19:19:03.638Z,27.47
2017-11-29T19:21:29.871Z,24.40
2017-11-29T19:23:56.115Z,29.20
2017-11-29T19:26:22.543Z,27.60
2017-11-29T19:28:48.731Z,26.80
2017-11-29T19:31:14.905Z,28.00
2017-11-29T19:33:41.073Z,28.90
2017-11-29T19:36:07.909Z,28.90
2017-11-29T19:38:34.425Z,30.43
2017-11-29T19:41:00.818Z,31.30
2017-11-29T19:43:27.216Z,29.60
2017-11-29T19:45:55.150Z,31.87
2017-11-29T19:48:21.455Z,34.33
2017-11-29T19:50:47.757Z,31.17
2017-11-29T19:53:14.016Z,31.50
2017-11-29T19:55:40.430Z,31.63
2017-11-29T19:58:07.483Z,32.03
2017-11-29T20:00:33.997Z,34.17
2017-11-29T20:03:01.411Z,33.50
2017-11-29T20:05:29.144Z,35.57
2017-11-29T20:07:55.506Z,33.07
2017-11-29T20:10:21.794Z,31.13
2017-11-29T20:12:49.738Z,32.13
2017-11-29T20:15:15.955Z,31.70
2017-11-29T20:17:42.197Z,32.87
2017-11-29T20:20:08.472Z,30.60
2017-11-29T20:22:36.305Z,30.40
2017-11-29T20:25:02.629Z,28.67
2017-11-29T20:27:35.857Z,27.43
2017-11-29T20:30:06.850Z,28.80
2017-11-29T20:32:37.178Z,29.80
2017-11-29T20:35:03.540Z,30.80
2017-11-29T20:37:29.799Z,28.73
2017-11-29T20:39:56.123Z,29.87
2017-11-29T20:42:23.170Z,27.83
2017-11-29T20:44:49.911Z,31.03
2017-11-29T20:47:16.575Z,28.63
2017-11-29T20:49:42.920Z,38.77
2017-11-29T20:55:15.945Z,29.47
2017-11-29T20:57:42.716Z,30.37
2017-11-29T21:00:09.037Z,31.90
2017-11-29T21:02:35.350Z,30.00
2017-11-29T21:05:02.399Z,29.07
2017-11-29T21:07:29.394Z,30.53
2017-11-29T21:09:55.663Z,26.33
2017-11-29T21:12:22.023Z,29.93
2017-11-29T21:14:48.543Z,29.33
2017-11-29T21:17:14.735Z,32.17
2017-11-29T21:19:40.994Z,33.03
2017-11-29T21:22:07.313Z,30.90
2017-11-29T21:24:34.367Z,33.30
2017-11-29T21:27:00.967Z,31.60
2017-11-29T21:29:28.145Z,32.53
2017-11-29T21:31:55.171Z,32.80
2017-11-29T21:34:21.568Z,34.50
2017-11-29T21:36:47.991Z,33.60
2017-11-29T21:39:14.276Z,34.83
2017-11-29T21:41:41.353Z,35.73
2017-11-29T21:44:07.704Z,36.73
2017-11-29T21:46:34.066Z,34.87
2017-11-29T21:49:01.174Z,35.40
2017-11-29T21:51:27.467Z,36.03
2017-11-29T21:53:53.676Z,35.90
2017-11-29T21:56:19.909Z,36.80
2017-11-29T21:58:46.227Z,37.63
2017-11-29T22:01:12.452Z,38.03
2017-11-29T22:03:39.525Z,35.83
2017-11-29T22:06:05.732Z,35.40
2017-11-29T22:08:31.910Z,34.40
2017-11-29T22:10:58.091Z,33.53
2017-11-29T22:13:24.290Z,33.60
2017-11-29T22:15:50.700Z,40.10
2017-11-29T22:18:18.405Z,34.60
2017-11-29T22:20:44.586Z,35.27
2017-11-29T22:23:11.523Z,37.27
2017-11-29T22:25:37.734Z,37.47
2017-11-29T22:28:03.944Z,37.17
2017-11-29T22:30:30.115Z,35.80
2017-11-29T22:32:56.314Z,35.20
2017-11-29T22:35:22.484Z,35.33
2017-11-29T22:37:48.689Z,39.20
2017-11-29T22:40:15.759Z,36.00
2017-11-29T22:42:41.933Z,35.87
2017-11-29T22:45:08.850Z,31.57
2017-11-29T22:47:35.067Z,36.40
2017-11-29T22:50:01.263Z,34.27
2017-11-29T22:52:28.167Z,33.00
2017-11-29T22:54:54.374Z,36.80
2017-11-29T22:57:21.315Z,34.67
2017-11-29T22:59:47.560Z,31.90
2017-11-29T23:02:13.773Z,33.30
2017-11-29T23:04:39.967Z,35.53
2017-11-29T23:07:06.149Z,43.97
2017-11-29T23:09:32.347Z,71.63
2017-11-29T23:11:59.264Z,39.33
2017-11-29T23:14:26.203Z,35.10
2017-11-29T23:16:52.430Z,34.67
2017-11-29T23:19:18.634Z,35.40
2017-11-29T23:21:45.561Z,35.13
2017-11-29T23:24:11.746Z,31.83
2017-11-29T23:26:37.964Z,34.40
2017-11-29T23:29:04.183Z,35.87
2017-11-29T23:31:31.128Z,35.43
2017-11-29T23:33:57.317Z,36.70
2017-11-29T23:36:23.529Z,32.97
2017-11-29T23:38:49.739Z,36.87
2017-11-29T23:41:15.943Z,35.83
2017-11-29T23:43:42.115Z,35.97
2017-11-29T23:46:08.314Z,38.87
2017-11-29T23:48:35.250Z,35.27
2017-11-29T23:51:01.417Z,33.97
2017-11-29T23:53:28.343Z,32.77
2017-11-29T23:55:54.531Z,32.07
2017-11-29T23:58:20.726Z,33.70
